aviador You're here:

KCCA Decoded Metar

in _UNIDENTIFIED
Report Time2017-12-17 05:55:00
UTC Time2017-12-17 06:04:03
Flight Rules mvfr MVFR
Wind170° at 05 kt
W.Decomp.*RWY 13: 4.0 kt HW 2.9 kt RCW
W.Rank170° ranks 7
Current wind is below 170° avg. (5.6)
Visibility8047 m
Phenomena:Light Rain
Clouds:Few 039 Hf
Scattered 049 Hf
Overcast 075 Hf
Expected CloudBase > 1,600 ft AGL from Temp-Dew spread
Ceiling7,500 ft
Temp07°C (ISA -7)
Dew Point03°C (76% RH)
AAT3.7°C
QNH1021 hPa
Density Alt-489 ft
Elevation515 ft
Report Wrong Elevation
Raw Report
KCCA 170555Z AUTO 17005KT 5SM -RA FEW039 SCT049 OVC075 07/03 A3014
RMK AO2=

Extra information for KCCA:More info

Metar Taf Metar & Taf Last 4 Metars F.Rules Stats Wind Profile Meteogram Temp Stats Metar ALERT Operation Metar Decoded Social comments